Time;durP1;ratioP1;P1;durP2;ratioP2;P2;SDS_P1;SDS_P2;PMS_P1;PMS_P2;Temp;Humidity;BMP_temperature;BMP_pressure;BME280_temperature;BME280_humidity;BME280_pressure;Samples;Min_cycle;Max_cycle;Signal;HPM_P1;HPM_P2
2022/12/11 00:01:55;;;;;;;24.67;7.80;;;;;;;8.63;46.65;100949.94;4868158;29;20024;-61
2022/12/11 00:04:21;;;;;;;30.00;9.85;;;;;;;8.60;46.18;100946.63;4883311;29;20154;-61
2022/12/11 00:06:49;;;;;;;21.40;6.95;;;;;;;8.61;46.58;100945.69;4883450;29;20052;-61
2022/12/11 00:09:16;;;;;;;23.58;7.63;;;;;;;8.61;46.69;100945.69;4883059;29;20032;-61
2022/12/11 00:11:41;;;;;;;18.13;6.50;;;;;;;8.63;46.84;100946.41;4882821;29;20032;-61
2022/12/11 00:14:07;;;;;;;18.15;7.18;;;;;;;8.64;46.98;100948.97;4867369;29;20554;-61
2022/12/11 00:16:32;;;;;;;15.50;5.85;;;;;;;8.60;47.06;100944.81;4882679;29;20508;-61
2022/12/11 00:18:57;;;;;;;21.02;7.22;;;;;;;8.58;46.51;100944.09;4867432;29;20040;-61
2022/12/11 00:21:23;;;;;;;19.52;7.82;;;;;;;8.59;46.85;100956.47;4867381;29;20063;-61
2022/12/11 00:23:48;;;;;;;19.38;7.28;;;;;;;8.62;46.76;100955.41;4882755;29;20127;-61
2022/12/11 00:26:14;;;;;;;14.32;6.03;;;;;;;8.64;46.24;100953.47;4879615;29;20061;-61
2022/12/11 00:28:41;;;;;;;19.42;6.57;;;;;;;8.64;47.18;100946.31;4864893;29;20025;-61
2022/12/11 00:31:08;;;;;;;19.05;6.30;;;;;;;8.72;46.61;100954.59;4879198;29;20045;-61
2022/12/11 00:33:34;;;;;;;18.52;6.88;;;;;;;8.72;46.38;100949.25;4879111;29;20460;-61
2022/12/11 00:35:59;;;;;;;28.02;7.90;;;;;;;8.77;46.30;100952.44;4879135;29;20067;-61
2022/12/11 00:38:25;;;;;;;16.23;6.82;;;;;;;8.80;47.11;100954.03;4879051;29;20380;-61
2022/12/11 00:40:50;;;;;;;20.95;7.45;;;;;;;8.82;46.31;100948.56;4880772;29;20084;-61
2022/12/11 00:43:16;;;;;;;19.80;7.80;;;;;;;8.86;46.84;100958.03;4863848;29;20503;-61
2022/12/11 00:45:45;;;;;;;22.88;7.50;;;;;;;8.89;47.26;100955.16;4879119;29;20495;-61
2022/12/11 00:48:11;;;;;;;15.85;6.90;;;;;;;8.91;46.26;100950.53;4863410;29;20071;-61
2022/12/11 00:50:36;;;;;;;27.63;8.18;;;;;;;8.91;46.79;100958.53;4877774;29;20068;-61
2022/12/11 00:53:03;;;;;;;20.25;7.60;;;;;;;8.90;47.10;100960.38;4893647;29;20033;-61
2022/12/11 00:55:28;;;;;;;17.70;6.80;;;;;;;8.89;46.26;100947.13;4877721;29;20033;-61
2022/12/11 00:57:55;;;;;;;22.08;8.18;;;;;;;8.94;46.42;100952.97;4877960;29;20040;-61
2022/12/11 01:00:24;;;;;;;21.27;7.28;;;;;;;8.92;45.52;100952.25;4862653;29;20041;-63
2022/12/11 01:02:50;;;;;;;18.25;6.28;;;;;;;8.89;46.92;100960.50;4877808;29;20041;-60
2022/12/11 01:05:15;;;;;;;21.38;7.22;;;;;;;8.86;46.51;100953.56;4877766;29;20077;-61
2022/12/11 01:07:40;;;;;;;21.17;6.13;;;;;;;8.88;46.36;100962.31;4877535;29;20040;-62
2022/12/11 01:10:24;;;;;;;17.85;6.90;;;;;;;8.86;47.00;100958.03;4877990;29;20096;-61
2022/12/11 01:12:57;;;;;;;18.05;5.85;;;;;;;8.85;46.26;100957.19;4876306;29;20488;-61
2022/12/11 01:15:28;;;;;;;22.13;7.75;;;;;;;8.86;47.36;100955.38;4879030;29;20060;-62
2022/12/11 01:17:53;;;;;;;24.23;7.25;;;;;;;8.87;46.27;100955.28;4862296;29;20041;-60
2022/12/11 01:20:20;;;;;;;18.05;6.80;;;;;;;8.85;45.97;100961.72;4878057;29;20032;-61
2022/12/11 01:22:46;;;;;;;26.55;7.30;;;;;;;8.77;46.58;100955.09;4878298;29;20028;-61
2022/12/11 01:25:11;;;;;;;20.05;7.68;;;;;;;8.76;47.07;100957.91;4863521;29;20033;-61
2022/12/11 01:27:37;;;;;;;23.45;7.18;;;;;;;8.73;47.13;100952.78;4899391;29;20502;-61
2022/12/11 01:30:04;;;;;;;23.60;6.35;;;;;;;8.72;46.39;100959.09;4885343;29;20063;-61
2022/12/11 01:32:29;;;;;;;24.08;6.22;;;;;;;8.69;46.90;100952.16;4917461;29;20048;-61
2022/12/11 01:34:55;;;;;;;23.38;7.07;;;;;;;8.72;46.73;100957.28;4918061;29;20435;-61
2022/12/11 01:37:20;;;;;;;21.10;6.53;;;;;;;8.72;46.69;100959.09;4901010;29;20040;-61
2022/12/11 01:39:45;;;;;;;19.25;7.38;;;;;;;8.72;46.93;100951.94;4900631;29;20120;-61
2022/12/11 01:42:16;;;;;;;23.88;7.35;;;;;;;8.71;46.97;100946.69;4900973;29;20064;-61
2022/12/11 01:44:41;;;;;;;20.40;8.20;;;;;;;8.70;46.24;100945.84;4900724;29;20065;-61
2022/12/11 01:47:07;;;;;;;24.25;7.22;;;;;;;8.63;47.27;100936.59;4917184;29;20438;-61
2022/12/11 01:49:32;;;;;;;21.92;5.95;;;;;;;8.60;46.40;100942.16;4903520;29;20123;-61
2022/12/11 01:52:05;;;;;;;23.48;7.60;;;;;;;8.59;46.80;100935.13;4904395;29;20040;-61
2022/12/11 01:54:32;;;;;;;26.15;7.72;;;;;;;8.66;46.83;100949.72;4904427;29;20039;-61
2022/12/11 01:57:01;;;;;;;19.65;7.80;;;;;;;8.70;46.76;100940.53;4904020;29;20043;-61
2022/12/11 01:59:28;;;;;;;18.25;7.25;;;;;;;8.70;46.41;100940.53;4904111;29;20418;-61
2022/12/11 02:01:57;;;;;;;18.35;6.43;;;;;;;8.71;47.13;100939.53;4904626;29;20122;-61
2022/12/11 02:04:23;;;;;;;22.48;7.90;;;;;;;8.68;47.21;100934.41;4903902;29;20038;-61
2022/12/11 02:06:50;;;;;;;24.52;8.57;;;;;;;8.70;47.57;100937.84;4904110;29;20110;-61
2022/12/11 02:09:23;;;;;;;22.05;7.50;;;;;;;8.70;47.15;100943.19;4904052;29;20032;-61
2022/12/11 02:11:51;;;;;;;25.23;7.32;;;;;;;8.76;46.42;100945.41;4903795;29;20451;-61
2022/12/11 02:14:25;;;;;;;23.38;7.18;;;;;;;8.80;46.73;100940.66;4920793;29;20455;-61
2022/12/11 02:17:04;;;;;;;17.30;6.25;;;;;;;8.85;46.95;100940.34;4921003;29;20035;-61
2022/12/11 02:20:02;;;;;;;15.48;7.15;;;;;;;8.86;46.48;100945.56;4888054;29;20096;-61
2022/12/11 02:22:34;;;;;;;19.80;7.30;;;;;;;8.85;46.74;100943.00;4920724;29;20525;-60
2022/12/11 02:25:05;;;;;;;18.63;5.93;;;;;;;8.85;47.06;100937.66;4920976;29;20119;-61
2022/12/11 02:27:39;;;;;;;16.27;6.05;;;;;;;8.85;46.40;100941.16;4900452;29;20041;-61
2022/12/11 02:30:07;;;;;;;16.33;5.50;;;;;;;8.86;46.85;100936.69;4900340;29;20037;-61
2022/12/11 02:32:44;;;;;;;18.67;6.88;;;;;;;8.88;47.26;100934.78;4900534;29;20033;-61
2022/12/11 02:35:10;;;;;;;13.73;5.10;;;;;;;8.87;46.59;100933.91;4901883;29;20400;-61
2022/12/11 02:37:36;;;;;;;14.82;5.53;;;;;;;8.87;46.28;100936.59;4901256;29;20077;-61
2022/12/11 02:40:04;;;;;;;13.30;5.47;;;;;;;8.87;46.38;100922.38;4900256;29;20088;-61
2022/12/11 02:42:30;;;;;;;17.02;5.32;;;;;;;8.86;46.52;100920.66;4884314;29;20060;-61
2022/12/11 02:44:58;;;;;;;12.15;4.53;;;;;;;8.87;46.37;100911.69;4884631;29;20069;-61
2022/12/11 02:47:26;;;;;;;17.48;5.03;;;;;;;8.86;46.58;100907.31;4899514;29;20526;-61
2022/12/11 02:49:52;;;;;;;18.40;5.45;;;;;;;8.86;46.30;100916.16;4884491;29;20035;-61
2022/12/11 02:52:20;;;;;;;18.10;5.30;;;;;;;8.84;45.80;100920.78;4900221;29;20032;-61
2022/12/11 02:54:45;;;;;;;17.80;5.25;;;;;;;8.85;46.16;100917.13;4899915;29;20044;-61
2022/12/11 02:57:22;;;;;;;13.75;5.18;;;;;;;8.87;47.17;100925.03;4899989;29;20041;-61
2022/12/11 02:59:47;;;;;;;13.88;4.95;;;;;;;8.85;46.40;100914.47;4899529;29;20043;-60
2022/12/11 03:02:14;;;;;;;15.60;6.60;;;;;;;8.85;46.45;100913.63;4901147;29;20032;-61
2022/12/11 03:04:40;;;;;;;16.88;5.68;;;;;;;8.84;46.69;100914.59;4900027;29;20115;-61
2022/12/11 03:07:14;;;;;;;11.93;5.75;;;;;;;8.85;46.34;100913.63;4899692;29;20056;-61
2022/12/11 03:09:41;;;;;;;13.43;4.65;;;;;;;8.85;46.68;100903.78;4884833;29;20037;-61
2022/12/11 03:12:09;;;;;;;13.45;5.38;;;;;;;8.86;47.01;100909.97;4899761;29;20499;-61
2022/12/11 03:14:36;;;;;;;15.80;4.93;;;;;;;8.87;46.90;100909.00;4900513;29;20424;-61
2022/12/11 03:17:04;;;;;;;17.42;5.22;;;;;;;8.89;45.92;100904.41;4899800;29;20024;-60
2022/12/11 03:20:07;;;;;;;14.93;4.75;;;;;;;8.91;46.11;100897.13;4899434;29;20072;-61
2022/12/11 03:22:52;;;;;;;18.23;5.63;;;;;;;8.96;46.50;100900.31;4896657;29;20128;-61
2022/12/11 03:25:22;;;;;;;12.30;4.93;;;;;;;8.96;45.97;100900.31;4900398;29;20418;-61
2022/12/11 03:27:55;;;;;;;13.20;4.57;;;;;;;9.00;46.00;100897.28;4899314;29;20100;-61
2022/12/11 03:30:20;;;;;;;;;;;;;;;9.01;46.78;100899.00;4883941;29;20131;-61
2022/12/11 03:33:22;;;;;;;15.77;5.47;;;;;;;9.00;46.24;100902.63;4899255;29;19955;-60
2022/12/11 03:35:51;;;;;;;18.15;4.57;;;;;;;8.99;46.49;100892.06;4851089;29;20092;-61
2022/12/11 03:38:26;;;;;;;10.82;5.10;;;;;;;8.98;45.96;100895.69;4899211;29;20024;-60
2022/12/11 03:40:54;;;;;;;15.10;4.35;;;;;;;8.99;46.20;100890.22;4899205;29;20024;-61
2022/12/11 03:43:20;;;;;;;20.52;5.20;;;;;;;9.01;46.01;100898.13;4899062;29;20115;-61
2022/12/11 03:45:46;;;;;;;15.00;5.47;;;;;;;9.00;45.96;100885.72;4898823;29;20104;-60
2022/12/11 03:48:12;;;;;;;11.25;4.78;;;;;;;9.03;46.78;100888.16;4898871;29;20180;-61
2022/12/11 03:50:39;;;;;;;18.30;5.75;;;;;;;9.05;46.16;100883.56;4898733;29;20028;-61
2022/12/11 03:53:05;;;;;;;12.82;4.97;;;;;;;9.05;46.90;100886.22;4899168;29;20039;-61
2022/12/11 03:55:31;;;;;;;14.48;4.78;;;;;;;9.07;46.13;100884.31;4882512;29;20559;-61
2022/12/11 03:57:56;;;;;;;12.88;4.88;;;;;;;9.09;45.82;100890.38;4898484;29;20040;-61
2022/12/11 04:00:22;;;;;;;16.40;5.25;;;;;;;9.13;45.86;100883.81;4898633;29;20135;-61
2022/12/11 04:03:11;;;;;;;15.98;5.07;;;;;;;9.14;46.22;100886.38;4882974;29;20057;-61
2022/12/11 04:05:33;;;;;;;12.13;5.80;;;;;;;9.13;46.27;100873.13;4898926;29;20416;-61
2022/12/11 04:07:58;;;;;;;8.77;3.55;;;;;;;9.15;46.83;100884.56;4898883;29;20032;-61
2022/12/11 04:10:24;;;;;;;12.13;4.75;;;;;;;9.16;46.31;100886.25;4882254;29;20037;-61
2022/12/11 04:12:49;;;;;;;12.45;5.50;;;;;;;9.18;46.48;100887.84;4898807;29;20414;-61
2022/12/11 04:15:14;;;;;;;11.68;4.78;;;;;;;9.17;46.31;100894.16;4900303;29;20115;-61
2022/12/11 04:26:14;;;;;;;17.55;4.68;;;;;;;9.12;46.48;100892.81;4901172;29;20094;-61
2022/12/11 04:28:41;;;;;;;12.60;5.07;;;;;;;9.08;46.63;100894.00;4901441;29;20391;-61
2022/12/11 04:31:13;;;;;;;16.15;5.40;;;;;;;9.10;46.87;100892.09;4901450;29;20060;-61
2022/12/11 04:33:39;;;;;;;14.02;4.68;;;;;;;9.09;46.61;100879.69;4883572;29;20096;-60
2022/12/11 04:36:04;;;;;;;10.75;5.80;;;;;;;9.11;46.50;100889.28;4882603;29;20036;-61
2022/12/11 04:38:30;;;;;;;12.15;5.43;;;;;;;9.12;46.25;100884.78;4882418;29;20510;-61
2022/12/11 04:41:03;;;;;;;12.70;4.43;;;;;;;9.16;46.30;100886.25;4883309;29;20028;-61
2022/12/11 04:43:29;;;;;;;9.77;4.75;;;;;;;9.18;46.57;100889.66;4899339;29;20061;-61
2022/12/11 04:46:04;;;;;;;14.23;4.78;;;;;;;9.17;45.75;100879.94;4866862;29;20503;-61
2022/12/11 04:48:30;;;;;;;13.52;5.05;;;;;;;9.21;46.13;100881.41;4882742;29;20037;-61
2022/12/11 04:50:55;;;;;;;11.90;4.28;;;;;;;9.21;45.58;100881.41;4882359;29;20047;-61
2022/12/11 04:53:21;;;;;;;17.45;4.75;;;;;;;9.21;46.52;100862.72;4866537;29;20028;-61
2022/12/11 04:55:46;;;;;;;14.45;5.43;;;;;;;9.24;46.01;100867.81;4866872;29;20546;-61
2022/12/11 04:58:12;;;;;;;18.35;5.18;;;;;;;9.22;46.00;100856.38;4866380;29;20041;-62
2022/12/11 05:00:39;;;;;;;12.95;4.82;;;;;;;9.24;45.95;100857.13;4882432;29;20047;-61
2022/12/11 05:03:04;;;;;;;9.73;4.95;;;;;;;9.26;45.92;100865.88;4882588;29;20123;-63
2022/12/11 05:05:30;;;;;;;13.40;4.45;;;;;;;9.26;45.99;100860.53;4882112;29;20483;-61
2022/12/11 05:07:55;;;;;;;8.85;3.90;;;;;;;9.24;45.71;100857.13;4882490;29;20380;-61
2022/12/11 05:10:21;;;;;;;11.10;4.43;;;;;;;9.25;46.39;100853.47;4882498;29;20416;-61
2022/12/11 05:12:46;;;;;;;13.80;4.65;;;;;;;9.25;46.05;100850.78;4899049;29;20096;-61
2022/12/11 05:15:12;;;;;;;10.02;4.10;;;;;;;9.27;45.19;100852.38;4882398;29;20123;-61
2022/12/11 05:17:37;;;;;;;9.88;4.47;;;;;;;9.27;45.37;100851.50;4898717;29;20060;-61
2022/12/11 05:20:03;;;;;;;11.32;4.80;;;;;;;9.24;45.42;100849.94;4867180;29;20470;-61
2022/12/11 05:22:29;;;;;;;10.07;4.70;;;;;;;9.22;45.52;100854.56;4900466;29;20490;-61
2022/12/11 05:24:54;;;;;;;8.30;2.85;;;;;;;9.21;45.31;100857.38;4885844;29;20032;-61
2022/12/11 05:27:20;;;;;;;7.50;3.33;;;;;;;9.21;45.46;100857.38;4902640;29;20040;-61
2022/12/11 05:29:45;;;;;;;12.50;3.95;;;;;;;9.17;46.18;100851.41;4885167;29;20037;-61
2022/12/11 05:32:10;;;;;;;10.35;3.70;;;;;;;9.20;45.65;100855.66;4870060;29;20032;-61
2022/12/11 05:34:36;;;;;;;13.18;4.85;;;;;;;9.21;45.31;100857.38;4886282;29;20542;-61
2022/12/11 05:37:01;;;;;;;9.85;3.92;;;;;;;9.19;45.56;100854.78;4885978;29;20037;-61
2022/12/11 05:39:26;;;;;;;13.52;4.57;;;;;;;9.18;44.93;100857.59;4885762;29;20036;-61
2022/12/11 05:41:52;;;;;;;9.82;3.63;;;;;;;9.13;45.49;100859.75;4885615;29;20080;-62
2022/12/11 05:44:17;;;;;;;16.88;4.45;;;;;;;9.10;45.31;100852.84;4885624;29;20028;-61
2022/12/11 05:46:42;;;;;;;15.18;5.10;;;;;;;9.06;45.38;100847.84;4886244;29;20028;-61
2022/12/11 05:49:09;;;;;;;13.10;3.90;;;;;;;9.11;46.24;100851.03;4885867;29;20057;-60
2022/12/11 05:51:35;;;;;;;7.50;3.80;;;;;;;9.11;46.00;100856.38;4885798;29;20041;-61
2022/12/11 05:54:00;;;;;;;11.10;3.25;;;;;;;9.14;45.78;100850.78;4870104;29;20181;-61
2022/12/11 05:56:31;;;;;;;8.70;4.20;;;;;;;9.16;45.83;100856.84;4885413;29;20033;-61
2022/12/11 05:58:57;;;;;;;7.95;3.40;;;;;;;9.15;45.92;100853.34;4886013;29;20523;-61
2022/12/11 06:01:29;;;;;;;8.52;3.67;;;;;;;9.21;45.12;100854.69;4869801;29;20451;-61
2022/12/11 06:03:56;;;;;;;9.73;3.80;;;;;;;9.22;45.79;100854.56;4869158;29;20432;-61
2022/12/11 06:06:22;;;;;;;10.73;3.92;;;;;;;9.23;45.25;100855.41;4869220;29;20033;-61
2022/12/11 06:08:52;;;;;;;7.97;3.63;;;;;;;9.25;45.99;100853.47;4901738;29;20439;-60
2022/12/11 06:11:18;;;;;;;13.77;4.15;;;;;;;9.25;45.11;100856.13;4869453;29;20030;-60
2022/12/11 06:13:44;;;;;;;9.00;3.80;;;;;;;9.22;45.85;100843.00;4885447;29;20024;-61
2022/12/11 06:16:09;;;;;;;8.15;3.60;;;;;;;9.24;44.75;100852.63;4885405;29;20105;-61
2022/12/11 06:18:36;;;;;;;7.72;4.15;;;;;;;9.23;45.54;100850.06;4869406;29;20413;-61
2022/12/11 06:21:16;;;;;;;8.25;3.25;;;;;;;9.19;45.34;100838.75;4885431;29;20179;-60
2022/12/11 06:23:43;;;;;;;8.70;4.43;;;;;;;9.12;45.63;100840.22;4869725;29;20435;-61
2022/12/11 06:26:09;;;;;;;10.95;3.97;;;;;;;9.05;45.42;100835.47;4882553;29;20056;-61
2022/12/11 06:28:34;;;;;;;14.77;4.25;;;;;;;9.07;45.34;100836.22;4882046;29;20062;-61
2022/12/11 06:31:00;;;;;;;7.72;3.55;;;;;;;9.02;44.76;100830.34;4866583;29;20065;-61
2022/12/11 06:33:26;;;;;;;9.13;3.28;;;;;;;8.97;45.56;100838.75;4882533;29;20029;-61
2022/12/11 06:35:51;;;;;;;13.65;3.83;;;;;;;9.02;45.76;100841.03;4866249;29;20041;-61
2022/12/11 06:38:17;;;;;;;9.55;3.63;;;;;;;9.01;45.51;100847.38;4881788;29;20029;-61
2022/12/11 06:40:42;;;;;;;11.23;4.32;;;;;;;9.04;45.07;100844.47;4866595;29;20028;-61
2022/12/11 06:43:08;;;;;;;9.60;4.35;;;;;;;9.04;45.12;100844.47;4881971;29;20044;-61
2022/12/11 06:45:33;;;;;;;13.75;4.82;;;;;;;9.04;44.77;100845.31;4866216;29;20061;-61
2022/12/11 06:48:02;;;;;;;8.27;3.65;;;;;;;9.08;45.30;100840.56;4881797;29;20037;-61
2022/12/11 06:50:27;;;;;;;7.55;4.13;;;;;;;9.06;45.59;100855.88;4881450;29;20483;-61
2022/12/11 06:52:52;;;;;;;10.07;4.72;;;;;;;9.03;45.78;100858.78;4882036;29;20036;-61
2022/12/11 06:55:18;;;;;;;9.95;4.65;;;;;;;8.97;44.85;100853.91;4881449;29;20037;-61
2022/12/11 06:57:43;;;;;;;13.98;4.43;;;;;;;8.96;45.06;100862.91;4882717;29;20045;-61
2022/12/11 07:00:09;;;;;;;12.25;4.72;;;;;;;8.88;45.11;100855.47;4881893;29;20033;-61
2022/12/11 07:02:34;;;;;;;16.55;5.30;;;;;;;8.85;44.76;100862.88;4881352;29;20458;-61
2022/12/11 07:05:00;;;;;;;10.20;4.38;;;;;;;8.77;45.88;100864.31;4883138;29;20060;-61
2022/12/11 07:07:25;;;;;;;14.02;5.57;;;;;;;8.71;44.88;100870.09;4866073;29;20396;-61
2022/12/11 07:09:51;;;;;;;13.40;5.07;;;;;;;8.68;44.89;100867.66;4882323;29;20037;-61
2022/12/11 07:12:16;;;;;;;8.88;4.82;;;;;;;8.72;45.63;100866.47;4881058;29;20177;-61
2022/12/11 07:14:41;;;;;;;11.38;4.60;;;;;;;8.73;45.86;100862.84;4865110;29;20037;-62
2022/12/11 07:17:07;;;;;;;12.02;5.43;;;;;;;8.73;45.62;100868.19;4881172;29;20033;-61
2022/12/11 07:19:33;;;;;;;9.90;4.45;;;;;;;8.71;44.96;100863.91;4865391;29;20096;-61
2022/12/11 07:21:58;;;;;;;11.77;4.95;;;;;;;8.66;44.73;100866.09;4881933;29;20037;-61
2022/12/11 07:24:23;;;;;;;7.85;4.63;;;;;;;8.63;44.63;100867.16;4880739;29;20037;-62
2022/12/11 07:26:49;;;;;;;10.02;3.65;;;;;;;8.60;45.26;100867.41;4880896;29;20045;-61
2022/12/11 07:29:14;;;;;;;11.43;4.38;;;;;;;8.60;45.18;100858.53;4865077;29;20514;-61
2022/12/11 07:31:39;;;;;;;13.70;4.35;;;;;;;8.62;45.49;100869.97;4882000;29;20066;-61
2022/12/11 07:34:05;;;;;;;8.77;3.70;;;;;;;8.65;45.20;100870.56;4880609;29;20047;-61
2022/12/11 07:36:31;;;;;;;8.88;3.65;;;;;;;8.66;45.41;100876.75;4880716;29;20403;-60
2022/12/11 07:38:57;;;;;;;10.00;4.45;;;;;;;8.69;44.94;100869.38;4865161;29;20131;-61
2022/12/11 07:41:23;;;;;;;11.82;4.00;;;;;;;8.73;44.68;100867.34;4880740;29;20052;-61
2022/12/11 07:43:48;;;;;;;14.02;4.60;;;;;;;8.73;44.59;100862.84;4880916;29;20116;-61
2022/12/11 07:46:21;;;;;;;7.95;4.13;;;;;;;8.76;45.06;100867.97;4880597;29;20033;-61
2022/12/11 07:48:47;;;;;;;7.32;3.65;;;;;;;8.77;45.06;100868.78;4864710;29;20070;-61
2022/12/11 07:51:16;;;;;;;16.13;4.57;;;;;;;8.81;45.24;100870.28;4879870;29;20032;-61
2022/12/11 07:53:44;;;;;;;17.95;7.25;;;;;;;8.84;45.07;100874.53;4880556;29;20037;-61
2022/12/11 07:56:09;;;;;;;9.55;5.00;;;;;;;8.87;45.16;100880.50;4880705;29;20024;-61
2022/12/11 07:58:35;;;;;;;12.55;4.82;;;;;;;8.91;44.91;100870.41;4880568;29;20124;-61
2022/12/11 08:01:01;;;;;;;12.15;4.30;;;;;;;8.89;45.19;100878.53;4880534;29;20033;-61
2022/12/11 08:03:26;;;;;;;11.65;5.47;;;;;;;8.87;44.80;100874.28;4880142;29;20041;-60
2022/12/11 08:05:52;;;;;;;6.72;3.38;;;;;;;8.83;45.05;100878.16;4880358;29;20117;-61
2022/12/11 08:08:18;;;;;;;9.40;4.68;;;;;;;8.82;45.36;100881.81;4880614;29;20021;-61
2022/12/11 08:10:44;;;;;;;9.13;4.28;;;;;;;8.81;45.26;100882.78;4865146;29;20411;-61
2022/12/11 08:13:10;;;;;;;7.03;3.80;;;;;;;8.80;45.50;100879.25;4880099;29;20519;-61
2022/12/11 08:15:36;;;;;;;11.15;4.47;;;;;;;8.79;44.79;100869.53;4880026;29;20037;-61
2022/12/11 08:18:01;;;;;;;8.45;3.50;;;;;;;8.79;45.44;100878.38;4879129;29;20052;-61
2022/12/11 08:20:26;;;;;;;14.60;3.88;;;;;;;8.78;45.66;100874.03;4879025;29;20025;-61
2022/12/11 08:22:52;;;;;;;8.63;3.70;;;;;;;8.73;45.15;100873.53;4880071;29;20047;-61
2022/12/11 08:25:17;;;;;;;8.88;4.18;;;;;;;8.73;45.58;100884.22;4863560;29;20040;-61
2022/12/11 08:27:43;;;;;;;12.80;4.40;;;;;;;8.74;45.20;100890.38;4882829;29;20045;-61
2022/12/11 08:30:09;;;;;;;10.82;4.75;;;;;;;8.76;44.84;100884.00;4882603;29;20111;-61
2022/12/11 08:32:34;;;;;;;13.52;4.45;;;;;;;8.78;44.54;100882.03;4899138;29;20036;-61
2022/12/11 08:35:00;;;;;;;6.65;4.32;;;;;;;8.78;44.88;100876.69;4883297;29;20032;-61
2022/12/11 08:37:25;;;;;;;13.93;4.45;;;;;;;8.73;44.41;100868.19;4882306;29;20036;-60
2022/12/11 08:39:50;;;;;;;13.82;5.07;;;;;;;8.76;45.27;100880.47;4882442;29;20478;-61
2022/12/11 08:42:16;;;;;;;9.40;3.83;;;;;;;8.72;45.28;100877.16;4866952;29;20467;-61
2022/12/11 08:44:41;;;;;;;18.10;5.78;;;;;;;8.76;45.19;100875.13;4898584;29;20403;-61
2022/12/11 08:47:08;;;;;;;10.80;4.07;;;;;;;8.73;44.98;100868.19;4882264;29;20035;-61
2022/12/11 08:49:34;;;;;;;10.75;4.03;;;;;;;8.73;45.46;100873.53;4882669;29;20119;-61
2022/12/11 08:51:59;;;;;;;10.82;4.38;;;;;;;8.77;44.80;100868.78;4882373;29;20060;-61
2022/12/11 08:54:25;;;;;;;10.65;4.88;;;;;;;8.79;44.68;100867.69;4867526;29;20043;-61
2022/12/11 08:56:50;;;;;;;8.90;4.55;;;;;;;8.83;44.52;100867.47;4881499;29;20577;-61
2022/12/11 08:59:17;;;;;;;12.70;5.38;;;;;;;8.89;45.18;100859.00;4898596;29;20462;-61
2022/12/11 09:01:42;;;;;;;10.95;4.47;;;;;;;8.89;45.23;100864.34;4883162;29;20108;-60
2022/12/11 09:04:08;;;;;;;9.35;4.78;;;;;;;8.88;44.94;100862.66;4899609;29;20463;-61
2022/12/11 09:06:33;;;;;;;11.65;4.72;;;;;;;8.90;44.97;100853.56;4882797;29;20521;-61
2022/12/11 09:09:00;;;;;;;10.55;4.45;;;;;;;8.96;45.02;100854.91;4867642;29;20057;-61
2022/12/11 09:11:28;;;;;;;9.38;4.25;;;;;;;8.97;44.62;100849.41;4866639;29;20024;-61
2022/12/11 09:13:54;;;;;;;10.90;4.75;;;;;;;9.00;45.50;100848.34;4867410;29;20037;-61
2022/12/11 09:16:23;;;;;;;12.98;4.72;;;;;;;9.04;45.34;100844.47;4899403;29;20040;-61
2022/12/11 09:18:50;;;;;;;12.30;4.60;;;;;;;9.09;44.72;100839.63;4882700;29;20120;-61
2022/12/11 09:21:17;;;;;;;11.85;5.18;;;;;;;9.12;45.03;100847.38;4866811;29;20036;-61
2022/12/11 09:23:43;;;;;;;14.25;4.63;;;;;;;9.10;44.78;100849.34;4867202;29;20215;-61
2022/12/11 09:26:11;;;;;;;10.30;4.80;;;;;;;9.08;44.42;100843.25;4883547;29;20564;-61
2022/12/11 09:28:36;;;;;;;9.52;4.22;;;;;;;9.10;45.00;100844.00;4867014;29;20059;-61
2022/12/11 09:31:09;;;;;;;14.73;5.53;;;;;;;9.12;45.34;100842.03;4866975;29;20546;-60
2022/12/11 09:33:35;;;;;;;9.55;4.30;;;;;;;9.15;44.96;100847.16;4882678;29;20060;-61
2022/12/11 09:36:01;;;;;;;16.85;4.53;;;;;;;9.13;44.86;100841.06;4865990;29;20527;-61
2022/12/11 09:38:27;;;;;;;10.02;4.22;;;;;;;9.15;44.36;100841.81;4881053;29;20032;-61
2022/12/11 09:40:52;;;;;;;11.23;4.88;;;;;;;9.19;45.46;100840.59;4881193;29;20067;-61
2022/12/11 09:43:38;;;;;;;9.85;4.15;;;;;;;9.16;45.33;100839.00;4865576;29;20040;-61
2022/12/11 09:46:09;;;;;;;35.17;9.75;;;;;;;9.20;45.08;100842.28;4865813;29;20036;-60
2022/12/11 09:48:36;;;;;;;24.02;8.68;;;;;;;9.26;44.69;100844.50;4865259;29;20037;-61
2022/12/11 09:51:09;;;;;;;16.13;7.57;;;;;;;9.31;44.82;100842.31;4881157;29;20154;-61
2022/12/11 09:53:34;;;;;;;;;;;;;;;9.38;44.37;100848.84;4881263;29;20032;-61
2022/12/11 09:56:19;;;;;;;13.15;4.95;;;;;;;9.43;44.94;100840.50;4865945;29;20370;-61
2022/12/11 09:58:57;;;;;;;16.17;5.90;;;;;;;9.45;44.73;100844.72;4881237;29;20039;-60
2022/12/11 10:01:35;;;;;;;26.25;7.45;;;;;;;9.49;44.94;100840.00;4875952;29;20045;-61
2022/12/11 10:04:33;;;;;;;11.82;5.22;;;;;;;9.50;44.61;100849.72;4897708;29;20040;-61
2022/12/11 10:07:01;;;;;;;10.45;4.22;;;;;;;9.48;44.53;100852.50;4881147;29;20044;-61
2022/12/11 10:09:45;;;;;;;10.02;4.55;;;;;;;9.50;44.85;100847.88;4899621;29;20100;-61
2022/12/11 10:12:11;;;;;;;9.80;3.67;;;;;;;9.51;44.26;100852.28;4901378;29;20064;-61
2022/12/11 10:14:59;;;;;;;10.75;4.45;;;;;;;9.54;44.79;100853.84;4900947;29;20064;-61
2022/12/11 10:17:30;;;;;;;24.60;6.85;;;;;;;9.56;44.54;100847.41;4876366;29;20044;-61
2022/12/11 10:19:59;;;;;;;12.77;5.15;;;;;;;9.59;44.48;100851.66;4866423;29;20021;-61
2022/12/11 10:22:30;;;;;;;11.02;4.97;;;;;;;9.63;44.51;100843.25;4866629;29;20089;-61
2022/12/11 10:24:58;;;;;;;8.02;3.80;;;;;;;9.65;44.47;100852.03;4849769;29;20040;-61
2022/12/11 10:27:31;;;;;;;9.50;4.38;;;;;;;9.69;44.73;100841.91;4865537;29;20128;-61
2022/12/11 10:30:06;;;;;;;9.75;4.30;;;;;;;9.60;44.59;100846.19;4849989;29;20033;-61
2022/12/11 10:32:51;;;;;;;10.55;4.40;;;;;;;9.57;44.60;100849.13;4881154;29;20029;-61
2022/12/11 10:35:26;;;;;;;10.32;4.53;;;;;;;9.51;44.35;100846.06;4881945;29;20025;-60
2022/12/11 10:37:56;;;;;;;12.13;3.95;;;;;;;9.48;44.79;100839.16;4865716;29;20104;-61
2022/12/11 10:40:22;;;;;;;10.57;4.43;;;;;;;9.47;44.98;100842.78;4865701;29;20132;-60
2022/12/11 10:42:52;;;;;;;12.93;4.07;;;;;;;9.50;44.51;100836.34;4849496;29;20047;-61
2022/12/11 10:45:18;;;;;;;50.25;13.95;;;;;;;9.53;44.72;100839.63;4881702;29;20064;-61
2022/12/11 10:47:43;;;;;;;23.23;8.40;;;;;;;9.60;44.73;100835.50;4864900;29;20036;-61
2022/12/11 10:50:22;;;;;;;13.75;5.40;;;;;;;9.69;44.30;100840.09;4881027;29;20586;-61
2022/12/11 10:52:47;;;;;;;10.88;4.63;;;;;;;9.72;44.52;100830.97;4865447;29;20052;-61
2022/12/11 10:55:38;;;;;;;10.80;4.95;;;;;;;9.74;44.26;100821.84;4892871;29;20037;-61
2022/12/11 10:58:05;;;;;;;12.00;4.18;;;;;;;9.73;44.25;100828.19;4900125;29;20047;-61
2022/12/11 11:00:40;;;;;;;11.30;4.85;;;;;;;9.69;43.99;100817.84;4883627;29;20037;-61
2022/12/11 11:03:20;;;;;;;14.05;4.88;;;;;;;9.69;44.27;100818.69;4900123;29;20524;-60
2022/12/11 11:05:45;;;;;;;12.50;4.40;;;;;;;9.72;44.11;100815.78;4883494;29;20043;-61
2022/12/11 11:08:20;;;;;;;13.32;4.93;;;;;;;9.73;44.70;100806.78;4883546;29;20021;-61
2022/12/11 11:10:55;;;;;;;11.00;4.70;;;;;;;9.75;44.61;100804.84;4867796;29;20024;-61
2022/12/11 11:13:22;;;;;;;10.02;4.38;;;;;;;9.76;44.53;100808.38;4883297;29;20177;-60
2022/12/11 11:15:48;;;;;;;11.05;4.13;;;;;;;9.75;44.35;100803.97;4898577;29;20060;-60
2022/12/11 11:18:25;;;;;;;13.43;5.05;;;;;;;9.71;44.49;100799.88;4882996;29;20040;-60
2022/12/11 11:20:51;;;;;;;9.13;4.93;;;;;;;9.69;44.61;100799.13;4882933;29;20168;-60
2022/12/11 11:23:18;;;;;;;11.77;4.43;;;;;;;9.69;44.56;100799.97;4883475;29;20065;-61
2022/12/11 11:26:01;;;;;;;11.00;5.03;;;;;;;9.70;44.17;100795.47;4898884;29;20144;-61
2022/12/11 11:28:35;;;;;;;11.63;5.70;;;;;;;9.70;44.63;100791.00;4882500;29;20067;-61
2022/12/11 11:31:30;;;;;;;10.50;4.65;;;;;;;9.71;44.64;100787.34;4867136;29;20033;-60
2022/12/11 11:34:02;;;;;;;12.27;4.75;;;;;;;9.71;44.17;100786.50;4882703;29;20111;-61
2022/12/11 11:36:29;;;;;;;11.07;4.72;;;;;;;9.70;44.23;100788.31;4867706;29;20581;-60
2022/12/11 11:39:19;;;;;;;6.63;3.85;;;;;;;9.71;44.98;100787.34;4883375;29;20526;-60
2022/12/11 11:41:50;;;;;;;13.70;4.75;;;;;;;9.68;44.42;100781.41;4882696;29;20443;-60